Latest Weather Observations for Noonamah

IDD60801

Issued at 9:31 pm CST Thursday 29 January 2015 (issued every 30 minutes, with the page automatically refreshed every 10 minutes)

About weather observations | Map of weather stations | Latest weather observations for NT | Other Formats
Station Details ID: 014314 Name: NOONAMAH AIRSTRIP Lat: -12.61 Lon: 131.05 Height: 17.5 m
Data from the previous 72 hours. | See also: Recent months for locations in Northern Territory
Date/Time
CST
Temp
°C
App
Temp
°C
Dew
Point
Rel
Hum
%
Delta-T
°C
Wind Press
QNH
hPa
Press
MSL
hPa
Rain
since 9 am
mm
Dir
 
Spd
km/h
Gust
km/h
Spd
kts
Gust
kts
29/09:30pm 24.4 30.2 23.9 97 0.3 CALM 0 0 0 0 1007.6 1007.4 23.2
29/09:00pm 24.4 29.2 23.5 95 0.6 NE 4 4 2 2 1007.5 1007.3 23.0
29/08:30pm 24.3 28.6 23.3 94 0.7 SE 6 7 3 4 1007.4 1007.2 22.8
29/08:00pm 24.6 29.0 23.4 93 0.8 ESE 6 9 3 5 1007.0 1006.8 22.2
29/07:30pm 25.2 29.1 23.6 91 1.1 ESE 9 15 5 8 1006.1 1005.9 22.0
29/07:00pm 25.3 29.6 24.3 94 0.7 E 9 17 5 9 1006.1 1005.9 22.0
29/06:30pm 24.8 29.5 23.9 95 0.6 NW 6 9 3 5 1005.0 1004.8 22.0
29/06:00pm 24.6 29.3 23.9 96 0.5 NW 6 9 3 5 1004.8 1004.6 21.8
29/05:30pm 24.5 28.8 23.6 95 0.6 W 7 15 4 8 1004.6 1004.4 20.8
29/05:00pm 25.0 27.5 23.8 93 0.8 W 17 24 9 13 1004.5 1004.3 5.6
29/04:51pm 26.1 28.3 24.0 88 1.4 W 19 28 10 15 1004.0 1003.8 1.2
29/04:30pm 31.2 36.1 24.3 66 4.8 N 6 11 3 6 1003.3 1003.1 0.2
29/04:00pm 31.8 36.5 23.9 63 5.5 ENE 6 7 3 4 1003.0 1002.8 0.2
29/03:30pm 32.9 37.5 23.2 56 6.7 W 4 6 2 3 1003.4 1003.2 0.2
29/03:00pm 33.1 38.7 24.3 60 6.2 SSE 2 9 1 5 1003.7 1003.5 0.2
29/02:30pm 32.6 37.7 24.1 61 6.0 WNW 4 7 2 4 1004.1 1003.9 0.2
29/02:00pm 32.7 37.3 24.7 62 5.6 NW 9 17 5 9 1004.3 1004.1 0.2
29/01:30pm 32.2 37.8 24.8 65 5.2 SW 4 7 2 4 1004.8 1004.6 0.2
29/01:00pm 32.0 36.9 24.3 63 5.4 W 6 9 3 5 1005.5 1005.3 0.2
29/12:30pm 31.7 36.7 23.8 63 5.5 SW 4 9 2 5 1006.0 1005.8 0.2
29/12:00pm 31.1 36.1 24.5 68 4.6 N 6 7 3 4 1006.4 1006.2 0.2
29/11:30am 30.6 35.7 24.0 68 4.6 W 4 7 2 4 1006.7 1006.5 0.2
29/11:00am 30.0 34.7 23.9 70 4.2 N 6 11 3 6 1007.1 1006.9 0.2
29/10:30am 29.3 34.1 24.2 74 3.5 NW 6 9 3 5 1007.3 1007.1 0.2
29/10:00am 28.8 33.7 23.7 74 3.5 N 4 7 2 4 1007.3 1007.1 0.2
29/09:30am 28.4 33.6 23.5 75 3.4 NNE 2 6 1 3 1007.2 1007.0 0.2
29/09:00am 27.5 32.6 23.3 78 2.9 ESE 2 4 1 2 1007.1 1006.9 4.8
29/08:30am 25.7 30.6 23.0 85 1.8 ENE 2 2 1 1 1006.9 1006.7 4.8
29/08:00am 24.7 30.2 24.0 96 0.5 ESE 2 4 1 2 1006.4 1006.2 4.8
29/07:30am 24.2 29.9 23.7 97 0.3 CALM 0 0 0 0 1006.0 1005.8 4.8
29/07:00am 24.1 29.3 23.6 97 0.3 SSE 2 4 1 2 1005.6 1005.4 4.8
29/06:30am 24.1 29.7 23.6 97 0.3 CALM 0 2 0 1 1005.3 1005.1 4.8
29/06:00am 24.2 29.5 23.7 97 0.3 SSW 2 4 1 2 1005.1 1004.9 4.8
29/05:30am 24.1 29.0 23.6 97 0.3 SE 4 7 2 4 1005.1 1004.9 4.8
29/05:00am 24.1 29.3 23.6 97 0.3 NW 2 4 1 2 1005.2 1005.0 4.8
29/04:30am 24.0 28.8 23.5 97 0.3 NW 4 6 2 3 1005.4 1005.2 4.8
29/04:00am 24.0 28.8 23.5 97 0.3 ESE 4 6 2 3 1005.4 1005.2 4.8
29/03:30am 24.0 28.4 23.5 97 0.3 SE 6 7 3 4 1005.6 1005.4 4.8
29/03:00am 24.1 28.6 23.6 97 0.3 SE 6 7 3 4 1005.8 1005.6 4.8
29/02:30am 24.1 28.5 23.4 96 0.5 E 6 7 3 4 1006.1 1005.9 4.8
29/02:00am 24.4 30.0 23.5 95 0.6 CALM 0 2 0 1 1006.6 1006.4 4.8
29/01:30am 24.3 29.8 23.4 95 0.6 CALM 0 4 0 2 1006.6 1006.4 4.8
29/01:00am 24.2 29.6 23.3 95 0.6 CALM 0 0 0 0 1006.6 1006.4 4.8
29/12:30am 24.1 29.5 23.2 95 0.6 CALM 0 0 0 0 1006.7 1006.5 4.8
29/12:00am 23.8 28.5 22.6 93 0.8 NE 2 4 1 2 1007.1 1006.9 4.8
 
Date/Time
CST
Temp
°C
App
Temp
°C
Dew
Point
Rel
Hum
%
Delta-T
°C
Wind Press
QNH
hPa
Press
MSL
hPa
Rain
since 9 am
mm
Dir
 
Spd
km/h
Gust
km/h
Spd
kts
Gust
kts
28/11:30pm 23.8 27.6 22.4 92 0.9 NNE 6 7 3 4 1007.3 1007.1 4.8
28/11:00pm 23.8 27.4 22.4 92 0.9 NNW 7 11 4 6 1007.3 1007.1 4.8
28/10:30pm 23.7 27.4 22.3 92 0.9 N 6 9 3 5 1007.4 1007.2 4.8
28/10:00pm 24.1 27.9 22.4 90 1.1 ESE 6 11 3 6 1007.1 1006.9 4.8
28/09:30pm 23.9 27.2 22.5 92 0.9 ESE 9 15 5 8 1007.3 1007.1 4.8
28/09:00pm 23.8 27.4 22.4 92 0.9 E 7 13 4 7 1007.2 1007.0 4.8
28/08:30pm 23.9 27.8 22.5 92 0.9 N 6 9 3 5 1006.2 1006.0 4.6
28/08:00pm 24.0 28.9 23.0 94 0.7 NE 2 6 1 3 1005.5 1005.3 4.0
28/07:30pm 23.8 28.5 22.6 93 0.8 NNW 2 6 1 3 1005.1 1004.9 3.8
28/07:00pm 23.6 27.7 22.2 92 0.9 W 4 7 2 4 1004.6 1004.4 3.8
28/06:30pm 23.4 26.7 22.6 95 0.5 NNW 9 19 5 10 1004.2 1004.0 3.6
28/06:00pm 23.6 27.1 22.9 96 0.5 NNW 9 15 5 8 1003.8 1003.6 3.4
28/05:30pm 23.6 27.1 22.9 96 0.5 NNW 9 17 5 9 1003.4 1003.2 3.2
28/05:00pm 25.3 29.7 23.4 89 1.3 SE 6 9 3 5 1003.9 1003.7 0.0
28/04:30pm 26.4 28.3 22.0 77 3.0 E 15 24 8 13 1002.8 1002.6 0.0
28/04:00pm 28.8 30.6 21.1 63 5.1 NNE 13 20 7 11 1001.9 1001.7 0.0
28/03:30pm 32.7 36.7 25.0 64 5.5 WNW 13 22 7 12 1001.6 1001.4 0.0
28/03:00pm 32.9 37.5 24.1 60 6.2 WNW 7 15 4 8 1002.2 1002.0 0.0
28/02:30pm 32.9 38.3 25.4 64 5.3 WNW 7 11 4 6 1002.7 1002.5 0.0
28/02:00pm 32.4 37.0 24.7 64 5.4 W 9 17 5 9 1003.4 1003.2 0.0
28/01:30pm 32.6 38.2 25.4 66 5.1 WSW 6 9 3 5 1003.7 1003.5 0.0
28/01:00pm 32.3 37.0 24.3 62 5.6 WNW 7 15 4 8 1004.2 1004.0 0.0
28/12:30pm 31.4 36.7 25.3 70 4.3 WNW 7 13 4 7 1004.6 1004.4 0.0
28/12:00pm 31.3 37.1 25.2 70 4.3 WNW 4 9 2 5 1005.1 1004.9 0.0
28/11:30am 30.6 35.6 24.5 70 4.3 WNW 6 11 3 6 1005.3 1005.1 0.0
28/11:00am 30.6 35.9 25.0 72 3.9 W 6 9 3 5 1005.4 1005.2 0.0
28/10:30am 30.0 34.9 24.6 73 3.8 NW 7 9 4 5 1005.6 1005.4 0.0
28/10:00am 29.7 35.6 24.1 72 3.9 CALM 0 2 0 1 1005.7 1005.5 0.0
28/09:30am 28.5 34.4 24.1 77 3.1 CALM 0 0 0 0 1005.7 1005.5 0.0
28/09:00am 27.4 32.4 23.8 81 2.5 SE 4 7 2 4 1005.7 1005.5 3.8
28/08:30am 27.2 32.1 24.3 84 2.0 SE 6 6 3 3 1005.5 1005.3 3.8
28/08:00am 26.0 32.1 25.0 94 0.7 ESE 2 4 1 2 1005.3 1005.1 3.8
28/07:30am 25.0 31.3 24.8 99 0.1 CALM 0 0 0 0 1004.9 1004.7 3.8
28/07:00am 24.8 31.0 24.6 99 0.1 CALM 0 0 0 0 1004.4 1004.2 3.8
28/06:30am 24.9 31.2 24.7 99 0.1 CALM 0 0 0 0 1004.0 1003.8 3.8
28/06:00am 24.9 30.8 24.7 99 0.1 WNW 2 4 1 2 1003.9 1003.7 3.8
28/05:30am 25.0 31.3 24.8 99 0.1 CALM 0 0 0 0 1003.7 1003.5 3.8
28/05:00am 25.0 30.6 24.8 99 0.1 ESE 4 6 2 3 1003.5 1003.3 3.8
28/04:30am 25.1 31.4 24.8 98 0.2 CALM 0 0 0 0 1003.6 1003.4 3.8
28/04:00am 25.3 31.1 25.1 99 0.1 WNW 4 4 2 2 1004.1 1003.9 3.8
28/03:30am 25.3 31.4 25.0 98 0.2 NNW 2 4 1 2 1003.9 1003.7 3.8
28/03:00am 25.4 31.9 25.1 98 0.2 CALM 0 0 0 0 1004.2 1004.0 3.8
28/02:30am 25.5 31.7 25.2 98 0.2 S 2 4 1 2 1004.4 1004.2 3.8
28/02:00am 25.6 31.4 25.1 97 0.3 SW 4 4 2 2 1005.0 1004.8 3.8
28/01:30am 25.7 31.5 25.2 97 0.3 W 4 6 2 3 1005.3 1005.1 3.8
28/01:00am 25.9 32.5 25.2 96 0.5 CALM 0 0 0 0 1005.7 1005.5 3.8
28/12:30am 26.1 32.7 25.2 95 0.6 CALM 0 0 0 0 1006.6 1006.4 3.8
28/12:00am 26.0 32.6 25.3 96 0.5 CALM 0 4 0 2 1006.9 1006.7 3.8
 
Date/Time
CST
Temp
°C
App
Temp
°C
Dew
Point
Rel
Hum
%
Delta-T
°C
Wind Press
QNH
hPa
Press
MSL
hPa
Rain
since 9 am
mm
Dir
 
Spd
km/h
Gust
km/h
Spd
kts
Gust
kts
27/11:30pm 26.0 32.1 25.1 95 0.6 S 2 4 1 2 1007.2 1007.0 3.8
27/11:00pm 26.2 32.4 25.2 94 0.7 SW 2 4 1 2 1007.3 1007.1 3.8
27/10:30pm 26.3 32.2 25.3 94 0.7 WSW 4 6 2 3 1007.1 1006.9 3.8
27/10:00pm 26.2 32.0 25.2 94 0.7 W 4 6 2 3 1006.9 1006.7 3.8
27/09:30pm 26.1 31.9 25.1 94 0.7 WNW 4 7 2 4 1006.8 1006.6 3.8
27/09:00pm 26.0 31.8 25.1 95 0.6 WNW 4 6 2 3 1006.7 1006.5 3.8
27/08:30pm 26.1 32.5 24.9 93 0.8 CALM 0 0 0 0 1006.3 1006.1 3.8
27/08:00pm 26.5 32.5 24.9 91 1.1 WSW 2 4 1 2 1005.5 1005.3 3.8
27/07:30pm 26.9 32.4 24.7 88 1.5 W 4 6 2 3 1004.7 1004.5 3.8
27/07:00pm 27.4 32.3 24.7 85 1.9 WNW 7 9 4 5 1004.3 1004.1 3.8
27/06:30pm 27.6 32.2 24.2 82 2.4 WNW 7 11 4 6 1004.2 1004.0 3.8
27/06:00pm 27.5 31.5 23.7 80 2.6 W 9 13 5 7 1003.9 1003.7 3.8
27/05:30pm 27.2 31.4 23.4 80 2.6 WNW 7 11 4 6 1003.2 1003.0 3.8
27/05:00pm 26.3 30.6 23.6 85 1.8 WNW 7 13 4 7 1003.6 1003.4 3.6
27/04:30pm 26.2 30.6 23.5 85 1.9 W 6 9 3 5 1003.9 1003.7 3.6
27/04:00pm 26.0 30.3 23.3 85 1.8 NNW 6 11 3 6 1004.2 1004.0 3.6
27/03:30pm 25.9 29.8 22.6 82 2.2 WSW 6 13 3 7 1004.3 1004.1 3.6
27/03:00pm 25.6 29.6 22.7 84 2.0 SW 6 7 3 4 1004.3 1004.1 3.6
27/02:30pm 24.5 28.0 22.8 90 1.1 WSW 9 15 5 8 1005.0 1004.8 3.6
27/02:00pm 23.5 27.5 22.7 95 0.5 WSW 6 9 3 5 1005.3 1005.1 3.6
27/01:30pm 23.4 26.0 22.7 96 0.5 WSW 13 22 7 12 1006.0 1005.8 3.6
27/01:00pm 23.2 25.7 22.4 95 0.5 WSW 13 20 7 11 1006.9 1006.7 3.0
27/12:30pm 24.3 27.5 22.4 89 1.3 WSW 9 17 5 9 1006.5 1006.3 1.6
27/12:00pm 25.1 28.0 23.2 89 1.3 WSW 13 20 7 11 1006.7 1006.5 1.6
27/11:30am 26.4 29.3 23.1 82 2.2 SSW 13 24 7 13 1007.3 1007.1 1.6
27/11:00am 26.0 29.4 24.0 89 1.4 S 13 32 7 17 1007.9 1007.7 1.6
27/10:30am 26.9 29.4 23.8 83 2.1 SSE 17 28 9 15 1008.1 1007.9 0.0
27/10:00am 29.9 34.9 25.4 77 3.2 WSW 9 15 5 8 1007.7 1007.5 0.0
27/09:30am 29.2 35.7 26.2 84 2.1 SSW 4 7 2 4 1008.0 1007.8 0.0
27/09:00am 28.4 35.5 26.6 90 1.3 SE 2 6 1 3 1007.8 1007.6 3.6
27/08:30am 26.6 33.1 25.7 95 0.6 ESE 2 6 1 3 1007.8 1007.6 3.6
27/08:00am 25.7 32.0 25.4 98 0.2 ESE 2 6 1 3 1007.9 1007.7 3.6
27/07:30am 25.4 30.8 25.1 98 0.2 SE 6 7 3 4 1007.5 1007.3 3.6
27/07:00am 25.6 31.5 25.4 99 0.1 S 4 7 2 4 1007.0 1006.8 3.4
27/06:30am 25.1 30.7 24.9 99 0.1 SSE 4 11 2 6 1006.8 1006.6 0.0
27/06:00am 25.1 31.4 24.8 98 0.2 CALM 0 0 0 0 1006.5 1006.3 0.0
27/05:30am 25.1 30.7 24.9 99 0.1 SE 4 6 2 3 1006.0 1005.8 0.0
27/05:00am 24.9 30.7 24.6 98 0.2 ENE 2 2 1 1 1005.6 1005.4 0.0
27/04:30am 25.0 31.3 24.7 98 0.2 CALM 0 0 0 0 1005.4 1005.2 0.0
27/04:00am 25.3 31.8 25.0 98 0.2 CALM 0 0 0 0 1005.4 1005.2 0.0
27/03:30am 25.3 31.3 24.8 97 0.3 W 2 2 1 1 1005.4 1005.2 0.0
27/03:00am 25.2 30.7 24.7 97 0.3 W 4 4 2 2 1005.5 1005.3 0.0
27/02:30am 25.2 31.1 24.7 97 0.3 NW 2 2 1 1 1005.4 1005.2 0.0
27/02:00am 25.4 31.0 24.9 97 0.3 WNW 4 6 2 3 1005.8 1005.6 0.0
27/01:30am 25.3 31.6 24.8 97 0.3 CALM 0 4 0 2 1006.2 1006.0 0.0
27/01:00am 25.4 31.8 24.9 97 0.3 CALM 0 0 0 0 1007.0 1006.8 0.0
27/12:30am 25.6 32.0 24.9 96 0.5 CALM 0 0 0 0 1007.4 1007.2 0.0
27/12:00am 25.8 31.8 24.9 95 0.6 SW 2 4 1 2 1007.7 1007.5 0.0
 
Date/Time
CST
Temp
°C
App
Temp
°C
Dew
Point
Rel
Hum
%
Delta-T
°C
Wind Press
QNH
hPa
Press
MSL
hPa
Rain
since 9 am
mm
Dir
 
Spd
km/h
Gust
km/h
Spd
kts
Gust
kts
26/11:30pm 25.9 31.2 25.2 96 0.5 WSW 7 9 4 5 1008.0 1007.8 0.0
26/11:00pm 25.9 31.0 25.0 95 0.6 SW 7 9 4 5 1008.1 1007.9 0.0
26/10:30pm 25.9 31.5 24.9 94 0.7 NNW 4 6 2 3 1007.4 1007.2 0.0
26/10:00pm 26.1 31.7 24.9 93 0.8 N 4 6 2 3 1007.5 1007.3 0.0

Other Formats:

Comma delimited format used in spreadsheet applications
http://www.bom.gov.au/fwo/IDD60801/IDD60801.94105.axf

JavaScript Object Notation format (JSON) in row-major order
http://www.bom.gov.au/fwo/IDD60801/IDD60801.94105.json